Sebastian, TX (78594)

8:27 AM CST on December 07, 2016 (GMT -0600)
Tropic Winds | | Change Station

Elev 46 ft 26.23 °N, 97.68 °W | Updated 12 seconds ago

Mostly Cloudy
Mostly Cloudy
60.8 °F
Feels Like 60.8 °F
N
4.0
Wind Variable Wind from NW
Gusts 4.9 mph

Today
High -- | Low -- °F
--% Chance of Precip.
Yesterday
High -- | Low -- °F
Precip. -- in
Pressure 29.99 in
Visibility 7.0 miles
Clouds Few 2500 ft
Scattered Clouds 3300 ft
Mostly Cloudy 4400 ft
Dew Point 59 °F
Humidity 94%
Rainfall 0.00 in
Snow Depth Not available.
7:06 AM 5:39 PM
First Quarter, 53% visible
METAR KHRL 071352Z 30006KT 7SM FEW025 SCT033 BKN044 16/16 A2999 RMK AO2 SLP153 T01560156
Pressure 29.99 in
Visibility 7.0 miles
Clouds Few 2500 ft
Scattered Clouds 3300 ft
Mostly Cloudy 4400 ft
Dew Point 59 °F
Humidity 94%
Rainfall 0.00 in
Snow Depth Not available.
7:06 AM 5:39 PM
First Quarter, 53% visible
METAR KHRL 071352Z 30006KT 7SM FEW025 SCT033 BKN044 16/16 A2999 RMK AO2 SLP153 T01560156

10-Day Weather Forecast

Almanac

Astronomy

Dec. 07, 2016 Rise Set
Actual Time
Civil Twilight
Nautical Twilight
Astronomical Twilight
Moon
Length of Visible Light
Length of Day
Tomorrow will be .
, % of the Moon is Illuminated

Today's Extremes

State Highs State Lows

Community

WunderPhotos

Upload Photos

1,956,116 photos uploaded!

WunderBlog® & News

Nearby

Air Quality

  Air Quality AQ Index Pollutant
Not available.

Snow Depth

Station Depth Elevation

Earthquake Activity

City Distance Mag. Time & Date
Minimum magnitude displayed is 2.5.

Coastal Water Temperatures

Place Temperature

Stations

Nearby Weather Stations

Station Location Temp. Windchill Dew Point Humidity Wind Precip. Elev Updated Type
                   

Watches & Warnings

There are currently no watches in effect.